createdAt,value
2023-02-22T00:01:47.453Z,16.08
2023-02-22T00:04:16.088Z,15.10
2023-02-22T00:06:42.693Z,15.73
2023-02-22T00:09:10.354Z,16.00
2023-02-22T00:11:38.649Z,16.17
2023-02-22T00:14:05.659Z,16.73
2023-02-22T00:16:32.258Z,17.33
2023-02-22T00:18:58.891Z,17.02
2023-02-22T00:21:25.424Z,17.02
2023-02-22T00:23:54.675Z,18.42
2023-02-22T00:26:23.463Z,17.92
2023-02-22T00:28:52.567Z,18.63
2023-02-22T00:31:20.306Z,20.85
2023-02-22T00:33:47.113Z,19.25
2023-02-22T00:36:14.529Z,19.45
2023-02-22T00:38:42.142Z,19.90
2023-02-22T00:41:09.101Z,18.77
2023-02-22T00:43:35.945Z,17.33
2023-02-22T00:46:02.717Z,17.80
2023-02-22T00:48:29.400Z,18.92
2023-02-22T00:50:56.033Z,20.23
2023-02-22T00:53:25.139Z,20.20
2023-02-22T00:55:52.042Z,20.13
2023-02-22T00:58:18.761Z,20.83
2023-02-22T01:00:45.829Z,21.80
2023-02-22T01:03:15.041Z,20.52
2023-02-22T01:05:42.110Z,20.08
2023-02-22T01:08:11.408Z,18.27
2023-02-22T01:10:39.365Z,18.23
2023-02-22T01:13:09.249Z,17.75
2023-02-22T01:15:39.137Z,18.60
2023-02-22T01:18:06.626Z,21.10
2023-02-22T01:20:33.361Z,19.75
2023-02-22T01:23:03.467Z,23.63
2023-02-22T01:25:31.378Z,22.27
2023-02-22T01:27:59.691Z,24.65
2023-02-22T01:30:29.690Z,20.88
2023-02-22T01:32:56.407Z,21.45
2023-02-22T01:35:27.890Z,24.17
2023-02-22T01:37:55.582Z,20.98
2023-02-22T01:40:42.001Z,21.52
2023-02-22T01:43:20.290Z,19.63
2023-02-22T01:45:52.583Z,19.63
2023-02-22T01:48:45.242Z,18.63
2023-02-22T01:51:19.262Z,19.92
2023-02-22T01:54:08.034Z,21.08
2023-02-22T01:56:38.693Z,22.23
2023-02-22T01:59:11.643Z,21.20
2023-02-22T02:01:39.885Z,21.42
2023-02-22T02:04:11.849Z,22.02
2023-02-22T02:09:11.609Z,20.40
2023-02-22T02:11:43.108Z,20.88
2023-02-22T02:14:11.606Z,20.05
2023-02-22T02:16:53.351Z,20.65
2023-02-22T02:19:32.588Z,21.25
2023-02-22T02:22:29.853Z,20.60
2023-02-22T02:25:10.885Z,20.00
2023-02-22T02:27:52.830Z,21.48
2023-02-22T02:30:47.256Z,21.27
2023-02-22T02:33:29.403Z,21.83
2023-02-22T02:38:45.980Z,22.10
2023-02-22T02:41:21.754Z,22.17
2023-02-22T02:43:57.835Z,21.70
2023-02-22T02:46:30.787Z,20.48
2023-02-22T02:49:01.435Z,22.08
2023-02-22T02:51:34.004Z,22.02
2023-02-22T02:54:02.561Z,22.88
2023-02-22T02:56:29.998Z,23.15
2023-02-22T02:58:56.807Z,23.40
2023-02-22T03:01:42.042Z,23.38
2023-02-22T03:04:56.335Z,21.60
2023-02-22T03:07:49.730Z,20.42
2023-02-22T03:10:28.223Z,21.73
2023-02-22T03:12:58.622Z,21.45
2023-02-22T03:15:49.846Z,21.85
2023-02-22T03:18:24.737Z,22.77
2023-02-22T03:21:14.284Z,22.42
2023-02-22T03:24:02.056Z,21.73
2023-02-22T03:26:41.419Z,22.08
2023-02-22T03:29:11.222Z,22.10
2023-02-22T03:31:48.484Z,22.52
2023-02-22T03:34:27.181Z,22.25
2023-02-22T03:36:59.743Z,21.35
2023-02-22T03:39:31.313Z,22.02
2023-02-22T03:42:04.740Z,21.52
2023-02-22T03:44:35.075Z,21.60
2023-02-22T03:47:06.715Z,21.20
2023-02-22T03:49:37.385Z,21.10
2023-02-22T03:52:05.167Z,22.55
2023-02-22T03:54:32.656Z,21.23
2023-02-22T03:57:08.532Z,21.35
2023-02-22T03:59:35.592Z,20.35
2023-02-22T04:02:02.210Z,20.48
2023-02-22T04:04:28.850Z,22.25
2023-02-22T04:06:55.495Z,21.10
2023-02-22T04:09:22.101Z,22.00
2023-02-22T04:11:48.747Z,21.98
2023-02-22T04:14:15.976Z,21.30
2023-02-22T04:16:42.717Z,22.25
2023-02-22T04:19:09.389Z,21.63
2023-02-22T04:21:35.936Z,21.65
2023-02-22T04:24:02.509Z,20.98
2023-02-22T04:26:29.120Z,20.33
2023-02-22T04:28:55.704Z,20.35
2023-02-22T04:31:22.277Z,21.60
2023-02-22T04:33:48.935Z,20.92
2023-02-22T04:36:16.147Z,23.23
2023-02-22T04:38:43.409Z,22.85
2023-02-22T04:41:10.001Z,21.17
2023-02-22T04:43:36.576Z,20.98
2023-02-22T04:46:04.444Z,21.20
2023-02-22T04:48:31.310Z,19.02
2023-02-22T04:50:57.879Z,19.73
2023-02-22T04:53:24.513Z,19.60
2023-02-22T04:55:51.077Z,18.95
2023-02-22T04:58:17.725Z,20.73
2023-02-22T05:00:44.444Z,19.92
2023-02-22T05:03:11.051Z,21.45
2023-02-22T05:05:37.812Z,20.63
2023-02-22T05:08:04.673Z,20.13
2023-02-22T05:10:31.335Z,19.15
2023-02-22T05:12:57.908Z,21.52
2023-02-22T05:15:25.407Z,20.75
2023-02-22T05:17:53.299Z,21.13
2023-02-22T05:20:29.638Z,21.05
2023-02-22T05:22:57.748Z,21.67
2023-02-22T05:25:25.216Z,20.90
2023-02-22T05:27:57.839Z,21.52
2023-02-22T05:30:31.249Z,24.52
2023-02-22T05:32:59.486Z,20.60
2023-02-22T05:35:27.493Z,22.42
2023-02-22T05:37:54.361Z,23.15
2023-02-22T05:40:23.464Z,22.00
2023-02-22T05:42:51.049Z,22.83
2023-02-22T05:45:19.632Z,22.88
2023-02-22T05:47:46.891Z,23.17
2023-02-22T05:50:15.702Z,25.02
2023-02-22T05:52:42.664Z,25.67
2023-02-22T05:55:11.407Z,24.48
2023-02-22T05:57:38.002Z,25.42
2023-02-22T06:00:08.361Z,25.65
2023-02-22T06:02:35.061Z,17.65
2023-02-22T06:05:01.655Z,18.17
2023-02-22T06:07:28.208Z,16.20
2023-02-22T06:09:54.798Z,18.70
2023-02-22T06:12:21.484Z,18.73
2023-02-22T06:14:48.064Z,18.42
2023-02-22T06:17:15.594Z,20.15
2023-02-22T06:19:42.316Z,19.63
2023-02-22T06:22:15.816Z,21.05
2023-02-22T06:24:42.488Z,22.55
2023-02-22T06:27:09.075Z,22.88
2023-02-22T06:29:35.673Z,24.02
2023-02-22T06:32:02.328Z,23.45
2023-02-22T06:34:28.944Z,23.33
2023-02-22T06:36:55.508Z,24.17
2023-02-22T06:39:22.198Z,28.17
2023-02-22T06:41:50.560Z,29.00
2023-02-22T06:44:17.195Z,26.67
2023-02-22T06:46:49.351Z,28.20
2023-02-22T06:49:15.947Z,28.00
2023-02-22T06:51:43.066Z,29.02
2023-02-22T06:54:09.603Z,29.30
2023-02-22T06:56:36.159Z,27.50
2023-02-22T06:59:02.958Z,30.60
2023-02-22T07:01:30.066Z,27.65
2023-02-22T07:03:57.037Z,28.40
2023-02-22T07:06:24.296Z,30.60
2023-02-22T07:08:50.881Z,31.58
2023-02-22T07:11:18.010Z,32.92
2023-02-22T07:13:44.716Z,33.05
2023-02-22T07:16:11.295Z,30.48
2023-02-22T07:18:38.742Z,26.30
2023-02-22T07:21:06.307Z,26.23
2023-02-22T07:23:33.355Z,28.88
2023-02-22T07:26:01.492Z,31.13
2023-02-22T07:28:28.446Z,28.83
2023-02-22T07:30:55.248Z,25.98
2023-02-22T07:33:21.845Z,23.85
2023-02-22T07:35:49.951Z,24.85
2023-02-22T07:38:19.773Z,24.17
2023-02-22T07:40:46.814Z,25.33
2023-02-22T07:43:18.058Z,26.17
2023-02-22T07:45:45.839Z,25.20
2023-02-22T07:48:14.644Z,23.85
2023-02-22T07:50:42.260Z,21.02
2023-02-22T07:53:14.684Z,21.75
2023-02-22T07:55:41.307Z,21.23
2023-02-22T07:58:09.261Z,25.23
2023-02-22T08:00:39.411Z,25.90
2023-02-22T08:03:09.291Z,24.27
2023-02-22T08:05:38.228Z,23.02
2023-02-22T08:08:06.247Z,23.17
2023-02-22T08:10:35.161Z,23.42
2023-02-22T08:13:02.310Z,22.50
2023-02-22T08:15:31.773Z,23.85
2023-02-22T08:18:01.014Z,22.02
2023-02-22T08:20:29.146Z,23.52
2023-02-22T08:22:56.609Z,23.40
2023-02-22T08:25:25.919Z,21.83
2023-02-22T08:27:58.746Z,22.90
2023-02-22T08:30:25.894Z,23.55
2023-02-22T08:32:52.564Z,23.15
2023-02-22T08:35:21.090Z,23.17
2023-02-22T08:37:53.433Z,24.15
2023-02-22T08:40:25.051Z,24.08
2023-02-22T08:42:52.100Z,25.33
2023-02-22T08:45:18.721Z,24.40
2023-02-22T08:47:45.613Z,24.13
2023-02-22T08:50:27.702Z,25.15
2023-02-22T08:55:24.477Z,27.70
2023-02-22T08:57:51.081Z,27.98
2023-02-22T09:00:25.364Z,30.83
2023-02-22T09:02:53.019Z,32.95
2023-02-22T09:05:20.396Z,33.58
2023-02-22T09:07:47.532Z,38.30
2023-02-22T09:10:18.153Z,40.00
2023-02-22T09:12:44.835Z,39.00
2023-02-22T09:15:12.493Z,39.25
2023-02-22T09:17:39.269Z,41.53
2023-02-22T09:20:08.110Z,41.85
2023-02-22T09:22:34.694Z,38.38
2023-02-22T09:25:11.280Z,39.72
2023-02-22T09:27:44.073Z,39.78
2023-02-22T09:30:37.350Z,36.47
2023-02-22T09:33:05.943Z,35.67
2023-02-22T09:35:36.305Z,34.25
2023-02-22T09:38:08.193Z,30.98
2023-02-22T09:40:44.853Z,31.63
2023-02-22T09:43:33.849Z,30.38
2023-02-22T09:46:13.453Z,29.88
2023-02-22T09:49:19.500Z,29.88
2023-02-22T09:52:11.954Z,28.33
2023-02-22T09:54:45.126Z,25.10
2023-02-22T09:57:35.174Z,26.77
2023-02-22T10:00:22.737Z,24.33
2023-02-22T10:02:59.406Z,22.20
2023-02-22T10:05:37.948Z,21.50
2023-02-22T10:08:10.237Z,20.70
2023-02-22T10:10:46.033Z,21.67
2023-02-22T10:13:28.106Z,21.75
2023-02-22T10:15:58.386Z,21.80
2023-02-22T10:18:44.048Z,21.17
2023-02-22T10:21:31.905Z,20.48
2023-02-22T10:24:38.411Z,20.40
2023-02-22T10:27:41.688Z,19.30
2023-02-22T10:30:24.915Z,20.85
2023-02-22T10:33:15.863Z,20.83
2023-02-22T10:35:46.919Z,20.25
2023-02-22T10:38:23.651Z,20.52
2023-02-22T10:40:59.286Z,21.52
2023-02-22T10:43:25.909Z,20.08
2023-02-22T10:46:03.685Z,20.27
2023-02-22T10:48:32.777Z,19.58
2023-02-22T10:51:02.166Z,19.33
2023-02-22T10:53:30.600Z,19.98
2023-02-22T10:56:21.388Z,20.85
2023-02-22T10:58:57.585Z,19.58
2023-02-22T11:01:42.195Z,19.48
2023-02-22T11:04:15.967Z,19.63
2023-02-22T11:06:45.944Z,19.02
2023-02-22T11:09:18.850Z,19.73
2023-02-22T11:11:47.387Z,19.00
2023-02-22T11:14:26.368Z,19.05
2023-02-22T11:16:56.878Z,17.75
2023-02-22T11:19:32.873Z,18.27
2023-02-22T11:22:05.628Z,17.35
2023-02-22T11:24:43.574Z,17.73
2023-02-22T11:27:31.746Z,18.23
2023-02-22T11:30:08.562Z,18.15
2023-02-22T11:32:36.557Z,17.63
2023-02-22T11:35:27.843Z,18.05
2023-02-22T11:38:11.811Z,17.98
2023-02-22T11:40:40.172Z,18.17
2023-02-22T11:43:12.136Z,17.48
2023-02-22T11:48:21.033Z,18.20
2023-02-22T11:51:10.086Z,16.35
2023-02-22T11:54:09.127Z,15.18
2023-02-22T11:56:38.108Z,15.38
2023-02-22T11:59:08.149Z,16.10
2023-02-22T12:01:56.983Z,15.57
2023-02-22T12:04:47.697Z,15.13
2023-02-22T12:07:26.384Z,14.80
2023-02-22T12:10:20.077Z,16.45
2023-02-22T12:13:05.121Z,15.60
2023-02-22T12:15:47.663Z,15.73
2023-02-22T12:18:34.071Z,15.48
2023-02-22T12:21:05.623Z,15.95
2023-02-22T12:24:16.471Z,15.93
2023-02-22T12:27:01.348Z,15.10
2023-02-22T12:29:57.801Z,16.17
2023-02-22T12:32:40.508Z,15.77
2023-02-22T12:35:20.826Z,16.58
2023-02-22T12:38:16.889Z,15.45
2023-02-22T12:40:57.113Z,15.82
2023-02-22T12:43:35.269Z,17.20
2023-02-22T12:46:19.000Z,15.68
2023-02-22T12:49:01.327Z,17.25
2023-02-22T12:54:26.048Z,15.60
2023-02-22T12:57:11.344Z,15.02
2023-02-22T12:59:47.114Z,16.48
2023-02-22T13:02:35.907Z,17.70
2023-02-22T13:05:02.745Z,18.23
2023-02-22T13:07:40.167Z,17.60
2023-02-22T13:10:23.771Z,19.08
2023-02-22T13:13:03.841Z,18.02
2023-02-22T13:15:43.068Z,17.83
2023-02-22T13:18:10.696Z,18.05
2023-02-22T13:20:45.690Z,18.40
2023-02-22T13:23:35.451Z,18.58
2023-02-22T13:26:31.669Z,18.60
2023-02-22T13:29:23.157Z,17.80
2023-02-22T13:31:55.988Z,17.60
2023-02-22T13:34:56.858Z,17.48
2023-02-22T13:37:41.835Z,17.05
2023-02-22T13:40:30.256Z,16.05
2023-02-22T13:43:02.663Z,16.27
2023-02-22T13:45:54.049Z,17.88
2023-02-22T13:48:54.117Z,15.65
2023-02-22T13:51:23.554Z,15.32
2023-02-22T13:53:58.579Z,14.05
2023-02-22T13:56:26.725Z,14.52
2023-02-22T13:58:57.284Z,14.15
2023-02-22T14:01:46.380Z,12.68
2023-02-22T14:04:37.186Z,13.18
2023-02-22T14:07:18.717Z,14.10
2023-02-22T14:09:51.312Z,13.35
2023-02-22T14:12:30.179Z,14.52
2023-02-22T14:15:28.597Z,13.38
2023-02-22T14:18:05.072Z,13.35
2023-02-22T14:20:37.153Z,13.95
2023-02-22T14:25:49.924Z,13.88
2023-02-22T14:28:46.227Z,13.75
2023-02-22T14:31:33.235Z,13.65
2023-02-22T14:34:14.175Z,14.75
2023-02-22T14:37:02.065Z,14.90
2023-02-22T14:39:52.022Z,14.18
2023-02-22T14:42:33.095Z,14.30
2023-02-22T14:45:05.889Z,14.10
2023-02-22T14:47:39.940Z,14.25
2023-02-22T14:50:23.236Z,15.30
2023-02-22T14:53:01.747Z,15.20
2023-02-22T14:55:31.503Z,15.50
2023-02-22T14:58:08.813Z,16.42
2023-02-22T15:00:42.064Z,15.80
2023-02-22T15:03:37.329Z,15.73
2023-02-22T15:06:15.054Z,16.30
2023-02-22T15:08:42.751Z,14.90
2023-02-22T15:11:21.091Z,15.82
2023-02-22T15:13:53.861Z,17.05
2023-02-22T15:16:23.303Z,16.60
2023-02-22T15:18:55.527Z,16.52
2023-02-22T15:21:26.227Z,16.88
2023-02-22T15:23:55.836Z,17.67
2023-02-22T15:26:31.560Z,17.38
2023-02-22T15:28:59.668Z,16.75
2023-02-22T15:31:26.308Z,16.92
2023-02-22T15:33:54.886Z,17.00
2023-02-22T15:36:27.005Z,17.80
2023-02-22T15:41:31.582Z,16.35
2023-02-22T15:44:07.990Z,17.55
2023-02-22T15:46:40.759Z,17.10
2023-02-22T15:49:10.282Z,25.75
2023-02-22T15:51:40.440Z,17.65
2023-02-22T15:54:13.300Z,16.63
2023-02-22T15:56:55.549Z,17.42
2023-02-22T15:59:33.325Z,16.13
2023-02-22T16:02:00.600Z,17.35
2023-02-22T16:04:30.868Z,17.38
2023-02-22T16:07:08.154Z,16.70
2023-02-22T16:09:34.879Z,16.65
2023-02-22T16:12:24.791Z,16.80
2023-02-22T16:14:54.472Z,16.42
2023-02-22T16:17:35.364Z,17.38
2023-02-22T16:20:21.887Z,17.25
2023-02-22T16:22:49.863Z,16.50
2023-02-22T16:25:19.617Z,16.40
2023-02-22T16:28:09.787Z,17.13
2023-02-22T16:30:40.362Z,16.65
2023-02-22T16:33:13.810Z,16.85
2023-02-22T16:35:41.047Z,16.85
2023-02-22T16:38:16.897Z,15.63
2023-02-22T16:40:55.723Z,16.52
2023-02-22T16:43:25.265Z,15.80
2023-02-22T16:45:53.254Z,15.77
2023-02-22T16:48:27.512Z,15.60
2023-02-22T16:50:56.909Z,15.52
2023-02-22T16:53:25.512Z,15.02
2023-02-22T16:55:57.703Z,15.88
2023-02-22T16:58:29.331Z,15.55
2023-02-22T17:00:57.444Z,16.33
2023-02-22T17:03:25.397Z,16.40
2023-02-22T17:05:52.460Z,16.50
2023-02-22T17:08:19.086Z,17.15
2023-02-22T17:10:46.453Z,16.63
2023-02-22T17:13:23.588Z,15.82
2023-02-22T17:15:51.315Z,17.90
2023-02-22T17:18:22.931Z,16.90
2023-02-22T17:20:51.485Z,17.75
2023-02-22T17:23:19.072Z,17.45
2023-02-22T17:25:50.387Z,25.52
2023-02-22T17:28:17.274Z,19.27
2023-02-22T17:30:45.318Z,22.15
2023-02-22T17:33:16.509Z,26.35
2023-02-22T17:35:44.100Z,22.95
2023-02-22T17:38:10.834Z,20.30
2023-02-22T17:40:39.792Z,20.25
2023-02-22T17:43:08.877Z,20.13
2023-02-22T17:45:39.093Z,22.35
2023-02-22T17:48:05.977Z,21.55
2023-02-22T17:50:32.664Z,22.27
2023-02-22T17:53:01.993Z,22.25
2023-02-22T17:55:28.652Z,22.10
2023-02-22T17:58:00.252Z,22.77
2023-02-22T18:00:33.187Z,22.05
2023-02-22T18:03:07.864Z,22.20
2023-02-22T18:05:40.613Z,22.42
2023-02-22T18:08:07.835Z,23.17
2023-02-22T18:10:34.749Z,24.30
2023-02-22T18:13:02.090Z,24.42
2023-02-22T18:15:29.155Z,23.95
2023-02-22T18:17:56.094Z,27.17
2023-02-22T18:20:31.134Z,24.52
2023-02-22T18:22:59.051Z,28.38
2023-02-22T18:25:27.219Z,28.63
2023-02-22T18:27:55.013Z,26.10
2023-02-22T18:30:21.918Z,48.78
2023-02-22T18:32:48.504Z,35.50
2023-02-22T18:35:15.140Z,32.08
2023-02-22T18:37:41.772Z,27.88
2023-02-22T18:40:10.537Z,25.42
2023-02-22T18:42:39.163Z,25.75
2023-02-22T18:45:07.368Z,26.92
2023-02-22T18:47:42.733Z,35.78
2023-02-22T18:50:11.775Z,28.88
2023-02-22T18:52:45.786Z,29.42
2023-02-22T18:55:19.929Z,31.52
2023-02-22T18:57:47.031Z,37.03
2023-02-22T19:00:16.704Z,34.78
2023-02-22T19:02:43.658Z,33.47
2023-02-22T19:05:17.378Z,30.58
2023-02-22T19:07:45.004Z,29.95
2023-02-22T19:10:11.608Z,49.92
2023-02-22T19:12:38.263Z,32.40
2023-02-22T19:15:05.060Z,30.55
2023-02-22T19:17:32.611Z,31.40
2023-02-22T19:19:59.205Z,34.83
2023-02-22T19:22:32.786Z,33.10
2023-02-22T19:25:01.264Z,33.70
2023-02-22T19:27:34.164Z,32.83
2023-02-22T19:30:00.801Z,33.95
2023-02-22T19:32:27.430Z,33.80
2023-02-22T19:35:02.234Z,33.78
2023-02-22T19:37:34.927Z,30.92
2023-02-22T19:40:06.627Z,30.73
2023-02-22T19:42:33.230Z,30.88
2023-02-22T19:44:59.848Z,29.90
2023-02-22T19:47:26.436Z,30.95
2023-02-22T19:49:53.323Z,31.88
2023-02-22T19:52:19.876Z,30.75
2023-02-22T19:54:46.442Z,29.52
2023-02-22T19:57:13.465Z,32.53
2023-02-22T19:59:40.304Z,35.25
2023-02-22T20:02:10.487Z,39.28
2023-02-22T20:04:37.418Z,36.47
2023-02-22T20:07:04.082Z,38.95
2023-02-22T20:09:39.389Z,38.33
2023-02-22T20:12:06.706Z,37.67
2023-02-22T20:14:34.188Z,38.03
2023-02-22T20:17:01.558Z,38.28
2023-02-22T20:19:28.642Z,38.15
2023-02-22T20:21:56.002Z,39.40
2023-02-22T20:24:23.792Z,39.13
2023-02-22T20:26:51.031Z,41.00
2023-02-22T20:29:18.010Z,40.10
2023-02-22T20:31:49.883Z,40.80
2023-02-22T20:34:16.502Z,42.50
2023-02-22T20:36:43.163Z,38.63
2023-02-22T20:39:13.542Z,39.90
2023-02-22T20:41:46.187Z,43.58
2023-02-22T20:44:15.414Z,41.67
2023-02-22T20:46:43.412Z,40.75
2023-02-22T20:49:13.607Z,41.15
2023-02-22T20:51:40.814Z,42.30
2023-02-22T20:54:10.483Z,43.45
2023-02-22T20:56:38.576Z,45.58
2023-02-22T20:59:05.390Z,43.92
2023-02-22T21:01:32.415Z,42.60
2023-02-22T21:04:03.680Z,41.22
2023-02-22T21:06:31.018Z,41.63
2023-02-22T21:09:00.112Z,39.17
2023-02-22T21:11:30.431Z,38.38
2023-02-22T21:13:57.343Z,40.28
2023-02-22T21:16:27.052Z,38.85
2023-02-22T21:18:56.309Z,37.75
2023-02-22T21:21:22.828Z,39.00
2023-02-22T21:23:51.772Z,39.80
2023-02-22T21:26:23.586Z,39.85
2023-02-22T21:28:51.860Z,40.17
2023-02-22T21:31:21.796Z,38.53
2023-02-22T21:33:53.123Z,39.42
2023-02-22T21:36:25.110Z,37.85
2023-02-22T21:38:57.236Z,37.97
2023-02-22T21:41:27.816Z,39.80
2023-02-22T21:43:56.090Z,40.22
2023-02-22T21:46:23.880Z,38.50
2023-02-22T21:48:50.854Z,39.00
2023-02-22T21:51:19.745Z,42.20
2023-02-22T21:53:52.248Z,41.40
2023-02-22T21:56:24.207Z,40.75
2023-02-22T22:01:31.556Z,41.33
2023-02-22T22:06:28.253Z,41.90
2023-02-22T22:08:54.945Z,44.33
2023-02-22T22:11:22.085Z,45.13
2023-02-22T22:13:49.207Z,41.83
2023-02-22T22:16:19.406Z,42.78
2023-02-22T22:18:46.878Z,48.35
2023-02-22T22:21:17.470Z,44.55
2023-02-22T22:23:47.037Z,49.15
2023-02-22T22:26:16.375Z,44.20
2023-02-22T22:28:46.307Z,49.97
2023-02-22T22:31:14.170Z,48.88
2023-02-22T22:33:42.520Z,49.95
2023-02-22T22:36:10.834Z,45.28
2023-02-22T22:38:40.905Z,47.70
2023-02-22T22:41:09.623Z,43.55
2023-02-22T22:43:37.544Z,42.25
2023-02-22T22:46:06.040Z,40.08
2023-02-22T22:48:36.217Z,38.83
2023-02-22T22:51:09.357Z,37.90
2023-02-22T22:53:41.739Z,36.30
2023-02-22T22:56:14.582Z,34.15
2023-02-22T22:58:44.006Z,33.88
2023-02-22T23:01:18.271Z,31.92
2023-02-22T23:03:55.097Z,31.17
2023-02-22T23:06:27.746Z,28.85
2023-02-22T23:09:00.075Z,30.58
2023-02-22T23:11:29.501Z,29.55
2023-02-22T23:13:56.601Z,27.98
2023-02-22T23:16:24.327Z,27.67
2023-02-22T23:18:51.466Z,27.95
2023-02-22T23:21:24.364Z,28.45
2023-02-22T23:23:55.828Z,28.55
2023-02-22T23:26:22.574Z,33.40
2023-02-22T23:28:49.199Z,35.55
2023-02-22T23:31:18.021Z,35.22
2023-02-22T23:33:48.351Z,34.65
2023-02-22T23:36:16.341Z,34.13
2023-02-22T23:38:43.767Z,21.75
2023-02-22T23:41:12.924Z,19.08
2023-02-22T23:43:40.452Z,19.80
2023-02-22T23:46:10.861Z,18.05
2023-02-22T23:48:46.742Z,17.55
2023-02-22T23:51:16.355Z,16.75
2023-02-22T23:53:46.187Z,16.02
2023-02-22T23:56:15.150Z,14.88
2023-02-22T23:58:42.403Z,15.05
